sensor_id;sensor_type;location;lat;lon;timestamp;P1;durP1;ratioP1;P2;durP2;ratioP2
61188;SDS011;47054;39.716;2.904;2022-11-25T00:00:10;6.22;;;2.30;;
61188;SDS011;47054;39.716;2.904;2022-11-25T00:02:55;3.05;;;1.92;;
61188;SDS011;47054;39.716;2.904;2022-11-25T00:05:40;4.70;;;2.10;;
61188;SDS011;47054;39.716;2.904;2022-11-25T00:08:25;5.38;;;2.22;;
61188;SDS011;47054;39.716;2.904;2022-11-25T00:11:10;3.42;;;2.08;;
61188;SDS011;47054;39.716;2.904;2022-11-25T00:13:56;4.10;;;2.15;;
61188;SDS011;47054;39.716;2.904;2022-11-25T00:16:41;4.45;;;2.40;;
61188;SDS011;47054;39.716;2.904;2022-11-25T00:19:26;3.90;;;2.22;;
61188;SDS011;47054;39.716;2.904;2022-11-25T00:22:11;3.22;;;1.90;;
61188;SDS011;47054;39.716;2.904;2022-11-25T00:24:55;3.60;;;1.90;;
61188;SDS011;47054;39.716;2.904;2022-11-25T00:27:40;3.75;;;2.10;;
61188;SDS011;47054;39.716;2.904;2022-11-25T00:30:24;4.30;;;2.40;;
61188;SDS011;47054;39.716;2.904;2022-11-25T00:33:08;3.53;;;2.13;;
61188;SDS011;47054;39.716;2.904;2022-11-25T00:35:53;3.67;;;2.17;;
61188;SDS011;47054;39.716;2.904;2022-11-25T00:38:37;3.88;;;1.92;;
61188;SDS011;47054;39.716;2.904;2022-11-25T00:41:22;3.58;;;2.05;;
61188;SDS011;47054;39.716;2.904;2022-11-25T00:44:26;3.38;;;1.83;;
61188;SDS011;47054;39.716;2.904;2022-11-25T00:47:20;3.97;;;2.13;;
61188;SDS011;47054;39.716;2.904;2022-11-25T00:50:05;3.55;;;2.20;;
61188;SDS011;47054;39.716;2.904;2022-11-25T00:52:50;3.72;;;2.20;;
61188;SDS011;47054;39.716;2.904;2022-11-25T00:55:35;3.95;;;2.00;;
61188;SDS011;47054;39.716;2.904;2022-11-25T00:58:41;3.80;;;2.20;;
61188;SDS011;47054;39.716;2.904;2022-11-25T01:01:26;4.47;;;2.20;;
61188;SDS011;47054;39.716;2.904;2022-11-25T01:04:11;4.60;;;2.28;;
61188;SDS011;47054;39.716;2.904;2022-11-25T01:06:56;3.63;;;2.05;;
61188;SDS011;47054;39.716;2.904;2022-11-25T01:09:43;4.03;;;2.17;;
61188;SDS011;47054;39.716;2.904;2022-11-25T01:12:27;3.53;;;1.98;;
61188;SDS011;47054;39.716;2.904;2022-11-25T01:15:12;4.25;;;1.85;;
61188;SDS011;47054;39.716;2.904;2022-11-25T01:17:56;4.00;;;2.15;;
61188;SDS011;47054;39.716;2.904;2022-11-25T01:20:41;4.00;;;1.98;;
61188;SDS011;47054;39.716;2.904;2022-11-25T01:23:27;3.95;;;2.25;;
61188;SDS011;47054;39.716;2.904;2022-11-25T01:26:13;3.00;;;1.88;;
61188;SDS011;47054;39.716;2.904;2022-11-25T01:29:00;3.65;;;2.05;;
61188;SDS011;47054;39.716;2.904;2022-11-25T01:31:46;3.70;;;2.13;;
61188;SDS011;47054;39.716;2.904;2022-11-25T01:34:31;3.33;;;1.70;;
61188;SDS011;47054;39.716;2.904;2022-11-25T01:37:17;3.28;;;2.08;;
61188;SDS011;47054;39.716;2.904;2022-11-25T01:40:01;3.47;;;2.00;;
61188;SDS011;47054;39.716;2.904;2022-11-25T01:42:47;4.18;;;2.00;;
61188;SDS011;47054;39.716;2.904;2022-11-25T01:45:33;4.00;;;2.10;;
61188;SDS011;47054;39.716;2.904;2022-11-25T01:48:21;2.80;;;1.75;;
61188;SDS011;47054;39.716;2.904;2022-11-25T01:51:23;4.25;;;1.73;;
61188;SDS011;47054;39.716;2.904;2022-11-25T01:54:09;4.03;;;2.00;;
61188;SDS011;47054;39.716;2.904;2022-11-25T01:56:58;3.15;;;1.83;;
61188;SDS011;47054;39.716;2.904;2022-11-25T01:59:48;4.55;;;1.90;;
61188;SDS011;47054;39.716;2.904;2022-11-25T02:02:36;4.38;;;2.20;;
61188;SDS011;47054;39.716;2.904;2022-11-25T02:05:45;3.83;;;2.08;;
61188;SDS011;47054;39.716;2.904;2022-11-25T02:08:32;3.25;;;2.03;;
61188;SDS011;47054;39.716;2.904;2022-11-25T02:11:17;3.53;;;1.85;;
61188;SDS011;47054;39.716;2.904;2022-11-25T02:14:03;3.10;;;1.90;;
61188;SDS011;47054;39.716;2.904;2022-11-25T02:16:48;3.33;;;1.85;;
61188;SDS011;47054;39.716;2.904;2022-11-25T02:20:16;3.28;;;1.75;;
61188;SDS011;47054;39.716;2.904;2022-11-25T02:25:41;4.32;;;2.25;;
61188;SDS011;47054;39.716;2.904;2022-11-25T02:28:31;3.75;;;1.83;;
61188;SDS011;47054;39.716;2.904;2022-11-25T02:31:20;4.57;;;1.92;;
61188;SDS011;47054;39.716;2.904;2022-11-25T02:34:05;3.15;;;1.90;;
61188;SDS011;47054;39.716;2.904;2022-11-25T02:36:52;3.38;;;1.70;;
61188;SDS011;47054;39.716;2.904;2022-11-25T02:39:37;3.20;;;1.80;;
61188;SDS011;47054;39.716;2.904;2022-11-25T02:42:21;4.82;;;2.00;;
61188;SDS011;47054;39.716;2.904;2022-11-25T02:45:07;3.25;;;1.90;;
61188;SDS011;47054;39.716;2.904;2022-11-25T02:47:56;3.03;;;1.60;;
61188;SDS011;47054;39.716;2.904;2022-11-25T02:50:41;3.47;;;1.90;;
61188;SDS011;47054;39.716;2.904;2022-11-25T02:53:25;4.32;;;1.83;;
61188;SDS011;47054;39.716;2.904;2022-11-25T02:56:10;3.28;;;1.95;;
61188;SDS011;47054;39.716;2.904;2022-11-25T02:58:56;3.63;;;2.05;;
61188;SDS011;47054;39.716;2.904;2022-11-25T03:01:44;2.80;;;1.70;;
61188;SDS011;47054;39.716;2.904;2022-11-25T03:04:28;3.67;;;1.88;;
61188;SDS011;47054;39.716;2.904;2022-11-25T03:07:14;2.95;;;1.73;;
61188;SDS011;47054;39.716;2.904;2022-11-25T03:09:58;2.70;;;1.67;;
61188;SDS011;47054;39.716;2.904;2022-11-25T03:12:43;3.58;;;1.77;;
61188;SDS011;47054;39.716;2.904;2022-11-25T03:15:27;2.83;;;1.60;;
61188;SDS011;47054;39.716;2.904;2022-11-25T03:18:12;4.95;;;2.05;;
61188;SDS011;47054;39.716;2.904;2022-11-25T03:20:56;3.70;;;1.90;;
61188;SDS011;47054;39.716;2.904;2022-11-25T03:23:42;3.83;;;1.90;;
61188;SDS011;47054;39.716;2.904;2022-11-25T03:26:26;3.40;;;1.70;;
61188;SDS011;47054;39.716;2.904;2022-11-25T03:29:12;3.05;;;1.75;;
61188;SDS011;47054;39.716;2.904;2022-11-25T03:31:57;3.65;;;1.70;;
61188;SDS011;47054;39.716;2.904;2022-11-25T03:34:41;2.95;;;1.70;;
61188;SDS011;47054;39.716;2.904;2022-11-25T03:37:26;2.72;;;1.70;;
61188;SDS011;47054;39.716;2.904;2022-11-25T03:40:12;3.42;;;1.90;;
61188;SDS011;47054;39.716;2.904;2022-11-25T03:42:58;3.00;;;1.80;;
61188;SDS011;47054;39.716;2.904;2022-11-25T03:45:46;3.10;;;1.80;;
61188;SDS011;47054;39.716;2.904;2022-11-25T03:48:33;3.53;;;1.83;;
61188;SDS011;47054;39.716;2.904;2022-11-25T03:51:17;2.65;;;1.70;;
61188;SDS011;47054;39.716;2.904;2022-11-25T03:54:02;2.70;;;1.70;;
61188;SDS011;47054;39.716;2.904;2022-11-25T03:56:55;3.10;;;1.75;;
61188;SDS011;47054;39.716;2.904;2022-11-25T03:59:39;2.95;;;1.60;;
61188;SDS011;47054;39.716;2.904;2022-11-25T04:02:24;4.82;;;1.88;;
61188;SDS011;47054;39.716;2.904;2022-11-25T04:05:09;3.05;;;1.60;;
61188;SDS011;47054;39.716;2.904;2022-11-25T04:07:53;3.58;;;1.70;;
61188;SDS011;47054;39.716;2.904;2022-11-25T04:10:38;3.40;;;1.65;;
61188;SDS011;47054;39.716;2.904;2022-11-25T04:13:23;2.55;;;1.58;;
61188;SDS011;47054;39.716;2.904;2022-11-25T04:16:15;3.53;;;2.00;;
61188;SDS011;47054;39.716;2.904;2022-11-25T04:19:07;3.22;;;1.63;;
61188;SDS011;47054;39.716;2.904;2022-11-25T04:21:52;2.55;;;1.48;;
61188;SDS011;47054;39.716;2.904;2022-11-25T04:24:37;2.95;;;1.67;;
61188;SDS011;47054;39.716;2.904;2022-11-25T04:27:22;2.90;;;1.70;;
61188;SDS011;47054;39.716;2.904;2022-11-25T04:30:08;2.70;;;1.50;;
61188;SDS011;47054;39.716;2.904;2022-11-25T04:32:56;2.85;;;1.55;;
61188;SDS011;47054;39.716;2.904;2022-11-25T04:35:41;3.08;;;1.60;;
61188;SDS011;47054;39.716;2.904;2022-11-25T04:38:26;3.08;;;1.70;;
61188;SDS011;47054;39.716;2.904;2022-11-25T04:41:15;3.05;;;1.60;;
61188;SDS011;47054;39.716;2.904;2022-11-25T04:44:02;4.07;;;1.77;;
61188;SDS011;47054;39.716;2.904;2022-11-25T04:46:47;3.80;;;1.83;;
61188;SDS011;47054;39.716;2.904;2022-11-25T04:49:33;3.35;;;1.70;;
61188;SDS011;47054;39.716;2.904;2022-11-25T04:52:18;4.35;;;1.80;;
61188;SDS011;47054;39.716;2.904;2022-11-25T04:55:03;3.55;;;1.95;;
61188;SDS011;47054;39.716;2.904;2022-11-25T04:57:48;3.53;;;1.70;;
61188;SDS011;47054;39.716;2.904;2022-11-25T05:00:33;3.60;;;1.80;;
61188;SDS011;47054;39.716;2.904;2022-11-25T05:03:20;2.97;;;1.70;;
61188;SDS011;47054;39.716;2.904;2022-11-25T05:06:05;2.70;;;1.40;;
61188;SDS011;47054;39.716;2.904;2022-11-25T05:08:52;2.47;;;1.50;;
61188;SDS011;47054;39.716;2.904;2022-11-25T05:11:39;2.85;;;1.60;;
61188;SDS011;47054;39.716;2.904;2022-11-25T05:14:23;2.42;;;1.58;;
61188;SDS011;47054;39.716;2.904;2022-11-25T05:17:13;2.72;;;1.65;;
61188;SDS011;47054;39.716;2.904;2022-11-25T05:20:02;3.10;;;1.67;;
61188;SDS011;47054;39.716;2.904;2022-11-25T05:22:50;2.83;;;1.52;;
61188;SDS011;47054;39.716;2.904;2022-11-25T05:25:38;3.67;;;1.80;;
61188;SDS011;47054;39.716;2.904;2022-11-25T05:28:42;3.10;;;1.63;;
61188;SDS011;47054;39.716;2.904;2022-11-25T05:31:29;2.88;;;1.70;;
61188;SDS011;47054;39.716;2.904;2022-11-25T05:34:13;3.40;;;1.80;;
61188;SDS011;47054;39.716;2.904;2022-11-25T05:36:58;3.30;;;1.80;;
61188;SDS011;47054;39.716;2.904;2022-11-25T05:39:43;3.78;;;1.80;;
61188;SDS011;47054;39.716;2.904;2022-11-25T05:42:47;2.92;;;1.90;;
61188;SDS011;47054;39.716;2.904;2022-11-25T05:45:34;3.25;;;1.70;;
61188;SDS011;47054;39.716;2.904;2022-11-25T05:48:23;2.58;;;1.80;;
61188;SDS011;47054;39.716;2.904;2022-11-25T05:51:08;3.75;;;2.00;;
61188;SDS011;47054;39.716;2.904;2022-11-25T05:53:55;4.38;;;1.70;;
61188;SDS011;47054;39.716;2.904;2022-11-25T05:56:44;3.22;;;1.95;;
61188;SDS011;47054;39.716;2.904;2022-11-25T05:59:47;3.10;;;1.73;;
61188;SDS011;47054;39.716;2.904;2022-11-25T06:02:41;3.90;;;2.00;;
61188;SDS011;47054;39.716;2.904;2022-11-25T06:05:30;4.05;;;1.92;;
61188;SDS011;47054;39.716;2.904;2022-11-25T06:08:18;3.15;;;1.80;;
61188;SDS011;47054;39.716;2.904;2022-11-25T06:11:10;3.15;;;1.60;;
61188;SDS011;47054;39.716;2.904;2022-11-25T06:13:56;3.13;;;1.73;;
61188;SDS011;47054;39.716;2.904;2022-11-25T06:16:41;2.88;;;1.52;;
61188;SDS011;47054;39.716;2.904;2022-11-25T06:19:47;2.92;;;1.70;;
61188;SDS011;47054;39.716;2.904;2022-11-25T06:22:35;3.83;;;1.65;;
61188;SDS011;47054;39.716;2.904;2022-11-25T06:25:19;3.65;;;1.77;;
61188;SDS011;47054;39.716;2.904;2022-11-25T06:28:06;3.15;;;1.80;;
61188;SDS011;47054;39.716;2.904;2022-11-25T06:30:51;2.90;;;1.65;;
61188;SDS011;47054;39.716;2.904;2022-11-25T06:33:47;3.55;;;1.90;;
61188;SDS011;47054;39.716;2.904;2022-11-25T06:36:33;3.72;;;2.10;;
61188;SDS011;47054;39.716;2.904;2022-11-25T06:39:17;3.70;;;1.75;;
61188;SDS011;47054;39.716;2.904;2022-11-25T06:42:02;3.28;;;1.95;;
61188;SDS011;47054;39.716;2.904;2022-11-25T06:44:47;3.88;;;1.60;;
61188;SDS011;47054;39.716;2.904;2022-11-25T06:47:32;3.65;;;1.77;;
61188;SDS011;47054;39.716;2.904;2022-11-25T06:50:16;4.25;;;1.80;;
61188;SDS011;47054;39.716;2.904;2022-11-25T06:53:01;3.58;;;1.70;;
61188;SDS011;47054;39.716;2.904;2022-11-25T06:55:45;2.90;;;1.83;;
61188;SDS011;47054;39.716;2.904;2022-11-25T06:58:29;2.67;;;1.70;;
61188;SDS011;47054;39.716;2.904;2022-11-25T07:01:24;3.13;;;1.67;;
61188;SDS011;47054;39.716;2.904;2022-11-25T07:04:11;3.63;;;1.75;;
61188;SDS011;47054;39.716;2.904;2022-11-25T07:06:55;3.45;;;1.80;;
61188;SDS011;47054;39.716;2.904;2022-11-25T07:09:40;3.17;;;1.90;;
61188;SDS011;47054;39.716;2.904;2022-11-25T07:12:24;3.00;;;1.80;;
61188;SDS011;47054;39.716;2.904;2022-11-25T07:15:09;2.63;;;1.60;;
61188;SDS011;47054;39.716;2.904;2022-11-25T07:17:53;2.88;;;1.65;;
61188;SDS011;47054;39.716;2.904;2022-11-25T07:20:38;2.97;;;1.80;;
61188;SDS011;47054;39.716;2.904;2022-11-25T07:23:23;3.05;;;1.75;;
61188;SDS011;47054;39.716;2.904;2022-11-25T07:26:12;3.08;;;1.60;;
61188;SDS011;47054;39.716;2.904;2022-11-25T07:29:00;3.10;;;1.80;;
61188;SDS011;47054;39.716;2.904;2022-11-25T07:31:47;3.25;;;1.60;;
61188;SDS011;47054;39.716;2.904;2022-11-25T07:34:31;2.90;;;1.60;;
61188;SDS011;47054;39.716;2.904;2022-11-25T07:37:16;3.47;;;2.10;;
61188;SDS011;47054;39.716;2.904;2022-11-25T07:40:01;3.63;;;1.90;;
61188;SDS011;47054;39.716;2.904;2022-11-25T07:42:46;2.58;;;1.70;;
61188;SDS011;47054;39.716;2.904;2022-11-25T07:45:30;2.53;;;1.60;;
61188;SDS011;47054;39.716;2.904;2022-11-25T07:48:24;4.05;;;1.90;;
61188;SDS011;47054;39.716;2.904;2022-11-25T07:54:07;3.35;;;1.85;;
61188;SDS011;47054;39.716;2.904;2022-11-25T07:56:54;3.72;;;1.90;;
61188;SDS011;47054;39.716;2.904;2022-11-25T07:59:38;3.10;;;1.65;;
61188;SDS011;47054;39.716;2.904;2022-11-25T08:02:24;3.10;;;1.70;;
61188;SDS011;47054;39.716;2.904;2022-11-25T08:05:09;2.88;;;1.67;;
61188;SDS011;47054;39.716;2.904;2022-11-25T08:07:55;4.55;;;1.48;;
61188;SDS011;47054;39.716;2.904;2022-11-25T08:10:39;3.70;;;1.90;;
61188;SDS011;47054;39.716;2.904;2022-11-25T08:13:24;2.80;;;1.73;;
61188;SDS011;47054;39.716;2.904;2022-11-25T08:16:09;2.97;;;1.70;;
61188;SDS011;47054;39.716;2.904;2022-11-25T08:18:59;2.65;;;1.60;;
61188;SDS011;47054;39.716;2.904;2022-11-25T08:21:45;3.88;;;1.73;;
61188;SDS011;47054;39.716;2.904;2022-11-25T08:24:32;2.90;;;1.63;;
61188;SDS011;47054;39.716;2.904;2022-11-25T08:27:17;2.70;;;1.52;;
61188;SDS011;47054;39.716;2.904;2022-11-25T08:30:01;3.30;;;1.92;;
61188;SDS011;47054;39.716;2.904;2022-11-25T08:32:45;2.85;;;1.60;;
61188;SDS011;47054;39.716;2.904;2022-11-25T08:35:30;2.80;;;1.50;;
61188;SDS011;47054;39.716;2.904;2022-11-25T08:38:15;2.30;;;1.50;;
61188;SDS011;47054;39.716;2.904;2022-11-25T08:41:00;3.30;;;1.60;;
61188;SDS011;47054;39.716;2.904;2022-11-25T08:43:45;3.80;;;1.70;;
61188;SDS011;47054;39.716;2.904;2022-11-25T08:46:31;3.33;;;1.70;;
61188;SDS011;47054;39.716;2.904;2022-11-25T08:49:19;4.55;;;2.00;;
61188;SDS011;47054;39.716;2.904;2022-11-25T08:52:05;2.88;;;1.60;;
61188;SDS011;47054;39.716;2.904;2022-11-25T08:54:49;3.00;;;1.60;;
61188;SDS011;47054;39.716;2.904;2022-11-25T08:57:34;2.70;;;1.67;;
61188;SDS011;47054;39.716;2.904;2022-11-25T09:00:19;3.22;;;1.60;;
61188;SDS011;47054;39.716;2.904;2022-11-25T09:03:04;3.10;;;1.70;;
61188;SDS011;47054;39.716;2.904;2022-11-25T09:05:49;3.05;;;1.67;;
61188;SDS011;47054;39.716;2.904;2022-11-25T09:08:36;3.78;;;1.75;;
61188;SDS011;47054;39.716;2.904;2022-11-25T09:11:21;3.65;;;1.83;;
61188;SDS011;47054;39.716;2.904;2022-11-25T09:14:05;2.50;;;1.70;;
61188;SDS011;47054;39.716;2.904;2022-11-25T09:16:50;2.33;;;1.50;;
61188;SDS011;47054;39.716;2.904;2022-11-25T09:19:34;3.10;;;1.80;;
61188;SDS011;47054;39.716;2.904;2022-11-25T09:22:19;2.30;;;1.63;;
61188;SDS011;47054;39.716;2.904;2022-11-25T09:25:03;3.15;;;1.80;;
61188;SDS011;47054;39.716;2.904;2022-11-25T09:27:48;3.45;;;1.80;;
61188;SDS011;47054;39.716;2.904;2022-11-25T09:30:33;3.47;;;1.67;;
61188;SDS011;47054;39.716;2.904;2022-11-25T09:33:18;3.70;;;1.77;;
61188;SDS011;47054;39.716;2.904;2022-11-25T09:36:03;3.30;;;1.80;;
61188;SDS011;47054;39.716;2.904;2022-11-25T09:38:49;2.92;;;1.63;;
61188;SDS011;47054;39.716;2.904;2022-11-25T09:41:55;2.67;;;1.73;;
61188;SDS011;47054;39.716;2.904;2022-11-25T09:45:20;3.17;;;1.80;;
61188;SDS011;47054;39.716;2.904;2022-11-25T09:48:42;2.17;;;1.50;;
61188;SDS011;47054;39.716;2.904;2022-11-25T09:51:49;2.63;;;1.60;;
61188;SDS011;47054;39.716;2.904;2022-11-25T09:54:37;3.03;;;1.90;;
61188;SDS011;47054;39.716;2.904;2022-11-25T09:57:29;2.80;;;1.58;;
61188;SDS011;47054;39.716;2.904;2022-11-25T10:00:16;2.80;;;1.80;;
61188;SDS011;47054;39.716;2.904;2022-11-25T10:08:38;3.60;;;1.85;;
61188;SDS011;47054;39.716;2.904;2022-11-25T10:17:39;3.17;;;1.80;;
61188;SDS011;47054;39.716;2.904;2022-11-25T10:20:30;4.10;;;1.80;;
61188;SDS011;47054;39.716;2.904;2022-11-25T10:23:19;3.33;;;1.70;;
61188;SDS011;47054;39.716;2.904;2022-11-25T10:26:11;3.28;;;1.85;;
61188;SDS011;47054;39.716;2.904;2022-11-25T10:32:39;1.98;;;1.42;;
61188;SDS011;47054;39.716;2.904;2022-11-25T10:35:14;2.70;;;1.70;;
61188;SDS011;47054;39.716;2.904;2022-11-25T10:38:04;4.22;;;2.17;;
61188;SDS011;47054;39.716;2.904;2022-11-25T10:40:54;3.17;;;1.90;;
61188;SDS011;47054;39.716;2.904;2022-11-25T10:43:39;2.70;;;1.67;;
61188;SDS011;47054;39.716;2.904;2022-11-25T10:46:39;3.20;;;1.92;;
61188;SDS011;47054;39.716;2.904;2022-11-25T10:52:12;3.13;;;1.45;;
61188;SDS011;47054;39.716;2.904;2022-11-25T10:57:56;2.45;;;1.52;;
61188;SDS011;47054;39.716;2.904;2022-11-25T11:00:41;2.97;;;1.60;;
61188;SDS011;47054;39.716;2.904;2022-11-25T11:03:26;2.88;;;1.65;;
61188;SDS011;47054;39.716;2.904;2022-11-25T11:09:37;4.30;;;2.20;;
61188;SDS011;47054;39.716;2.904;2022-11-25T11:12:27;2.33;;;1.40;;
61188;SDS011;47054;39.716;2.904;2022-11-25T11:15:23;3.22;;;1.90;;
61188;SDS011;47054;39.716;2.904;2022-11-25T11:18:14;2.78;;;1.50;;
61188;SDS011;47054;39.716;2.904;2022-11-25T11:21:09;2.40;;;1.52;;
61188;SDS011;47054;39.716;2.904;2022-11-25T11:33:26;2.90;;;1.50;;
61188;SDS011;47054;39.716;2.904;2022-11-25T11:39:35;3.28;;;1.65;;
61188;SDS011;47054;39.716;2.904;2022-11-25T11:42:42;2.95;;;1.63;;
61188;SDS011;47054;39.716;2.904;2022-11-25T11:48:38;3.92;;;1.60;;
61188;SDS011;47054;39.716;2.904;2022-11-25T11:51:42;4.35;;;1.83;;
61188;SDS011;47054;39.716;2.904;2022-11-25T12:00:35;3.45;;;1.50;;
61188;SDS011;47054;39.716;2.904;2022-11-25T12:03:27;3.47;;;1.63;;
61188;SDS011;47054;39.716;2.904;2022-11-25T12:06:13;2.92;;;1.60;;
61188;SDS011;47054;39.716;2.904;2022-11-25T12:09:03;3.33;;;1.65;;
61188;SDS011;47054;39.716;2.904;2022-11-25T12:11:53;2.72;;;1.45;;
61188;SDS011;47054;39.716;2.904;2022-11-25T12:14:43;4.05;;;1.75;;
61188;SDS011;47054;39.716;2.904;2022-11-25T12:17:37;3.60;;;1.40;;
61188;SDS011;47054;39.716;2.904;2022-11-25T12:23:41;3.50;;;1.50;;
61188;SDS011;47054;39.716;2.904;2022-11-25T12:27:18;4.45;;;1.80;;
61188;SDS011;47054;39.716;2.904;2022-11-25T12:29:49;4.53;;;1.80;;
61188;SDS011;47054;39.716;2.904;2022-11-25T12:32:42;4.13;;;1.83;;
61188;SDS011;47054;39.716;2.904;2022-11-25T12:47:28;3.22;;;1.52;;
61188;SDS011;47054;39.716;2.904;2022-11-25T12:50:16;3.15;;;1.77;;
61188;SDS011;47054;39.716;2.904;2022-11-25T12:53:15;3.35;;;1.65;;
61188;SDS011;47054;39.716;2.904;2022-11-25T12:56:20;2.25;;;1.50;;
61188;SDS011;47054;39.716;2.904;2022-11-25T12:59:17;3.22;;;1.38;;
61188;SDS011;47054;39.716;2.904;2022-11-25T13:14:53;4.97;;;1.50;;
61188;SDS011;47054;39.716;2.904;2022-11-25T13:17:46;2.25;;;1.38;;
61188;SDS011;47054;39.716;2.904;2022-11-25T13:20:33;2.20;;;1.45;;
61188;SDS011;47054;39.716;2.904;2022-11-25T13:23:21;2.70;;;1.60;;
61188;SDS011;47054;39.716;2.904;2022-11-25T13:38:33;3.92;;;1.60;;
61188;SDS011;47054;39.716;2.904;2022-11-25T13:41:22;2.65;;;1.42;;
61188;SDS011;47054;39.716;2.904;2022-11-25T13:47:47;2.28;;;1.48;;
61188;SDS011;47054;39.716;2.904;2022-11-25T13:50:32;2.50;;;1.27;;
61188;SDS011;47054;39.716;2.904;2022-11-25T13:53:31;1.88;;;1.20;;
61188;SDS011;47054;39.716;2.904;2022-11-25T14:01:55;2.63;;;1.30;;
61188;SDS011;47054;39.716;2.904;2022-11-25T14:23:23;2.20;;;1.23;;
61188;SDS011;47054;39.716;2.904;2022-11-25T14:26:24;3.33;;;1.42;;
61188;SDS011;47054;39.716;2.904;2022-11-25T14:29:16;2.60;;;1.58;;
61188;SDS011;47054;39.716;2.904;2022-11-25T14:32:27;1.95;;;1.10;;
61188;SDS011;47054;39.716;2.904;2022-11-25T14:44:20;2.38;;;1.35;;
61188;SDS011;47054;39.716;2.904;2022-11-25T14:47:09;1.95;;;1.20;;
61188;SDS011;47054;39.716;2.904;2022-11-25T14:49:54;2.35;;;1.38;;
61188;SDS011;47054;39.716;2.904;2022-11-25T14:52:39;2.63;;;1.40;;
61188;SDS011;47054;39.716;2.904;2022-11-25T14:55:30;2.70;;;1.30;;
61188;SDS011;47054;39.716;2.904;2022-11-25T14:58:15;2.85;;;1.55;;
61188;SDS011;47054;39.716;2.904;2022-11-25T15:01:02;2.00;;;1.10;;
61188;SDS011;47054;39.716;2.904;2022-11-25T15:03:50;2.25;;;1.23;;
61188;SDS011;47054;39.716;2.904;2022-11-25T15:06:49;2.30;;;1.13;;
61188;SDS011;47054;39.716;2.904;2022-11-25T15:09:37;2.47;;;1.17;;
61188;SDS011;47054;39.716;2.904;2022-11-25T15:12:27;3.30;;;1.30;;
61188;SDS011;47054;39.716;2.904;2022-11-25T15:15:15;1.95;;;1.20;;
61188;SDS011;47054;39.716;2.904;2022-11-25T15:18:03;1.92;;;1.13;;
61188;SDS011;47054;39.716;2.904;2022-11-25T15:20:52;2.65;;;1.30;;
61188;SDS011;47054;39.716;2.904;2022-11-25T15:23:42;2.55;;;1.30;;
61188;SDS011;47054;39.716;2.904;2022-11-25T15:26:28;2.45;;;1.30;;
61188;SDS011;47054;39.716;2.904;2022-11-25T15:29:14;1.90;;;1.10;;
61188;SDS011;47054;39.716;2.904;2022-11-25T15:31:59;3.22;;;1.50;;
61188;SDS011;47054;39.716;2.904;2022-11-25T15:34:44;1.75;;;1.20;;
61188;SDS011;47054;39.716;2.904;2022-11-25T15:37:30;2.40;;;1.30;;
61188;SDS011;47054;39.716;2.904;2022-11-25T15:43:21;2.15;;;1.10;;
61188;SDS011;47054;39.716;2.904;2022-11-25T15:46:07;2.67;;;1.10;;
61188;SDS011;47054;39.716;2.904;2022-11-25T15:48:52;2.45;;;1.20;;
61188;SDS011;47054;39.716;2.904;2022-11-25T15:54:42;2.28;;;1.20;;
61188;SDS011;47054;39.716;2.904;2022-11-25T15:57:38;3.63;;;1.27;;
61188;SDS011;47054;39.716;2.904;2022-11-25T16:00:24;2.05;;;1.20;;
61188;SDS011;47054;39.716;2.904;2022-11-25T16:03:20;2.38;;;1.30;;
61188;SDS011;47054;39.716;2.904;2022-11-25T16:06:24;1.90;;;1.10;;
61188;SDS011;47054;39.716;2.904;2022-11-25T16:09:18;4.45;;;1.15;;
61188;SDS011;47054;39.716;2.904;2022-11-25T16:12:05;2.20;;;1.20;;
61188;SDS011;47054;39.716;2.904;2022-11-25T16:14:50;2.45;;;1.23;;
61188;SDS011;47054;39.716;2.904;2022-11-25T16:17:35;2.03;;;1.20;;
61188;SDS011;47054;39.716;2.904;2022-11-25T16:20:20;2.80;;;1.42;;
61188;SDS011;47054;39.716;2.904;2022-11-25T16:23:07;1.83;;;1.10;;
61188;SDS011;47054;39.716;2.904;2022-11-25T16:26:03;2.00;;;1.20;;
61188;SDS011;47054;39.716;2.904;2022-11-25T16:28:55;1.85;;;1.20;;
61188;SDS011;47054;39.716;2.904;2022-11-25T16:31:41;2.25;;;1.00;;
61188;SDS011;47054;39.716;2.904;2022-11-25T16:34:26;2.97;;;1.17;;
61188;SDS011;47054;39.716;2.904;2022-11-25T16:37:11;2.45;;;1.15;;
61188;SDS011;47054;39.716;2.904;2022-11-25T16:39:55;2.22;;;1.17;;
61188;SDS011;47054;39.716;2.904;2022-11-25T16:42:40;2.72;;;1.23;;
61188;SDS011;47054;39.716;2.904;2022-11-25T16:45:25;1.50;;;0.98;;
61188;SDS011;47054;39.716;2.904;2022-11-25T16:48:14;3.30;;;1.30;;
61188;SDS011;47054;39.716;2.904;2022-11-25T16:51:00;1.95;;;1.10;;
61188;SDS011;47054;39.716;2.904;2022-11-25T16:53:46;1.52;;;0.80;;
61188;SDS011;47054;39.716;2.904;2022-11-25T16:56:30;1.33;;;0.95;;
61188;SDS011;47054;39.716;2.904;2022-11-25T16:59:28;1.52;;;1.05;;
61188;SDS011;47054;39.716;2.904;2022-11-25T17:02:16;3.30;;;1.20;;
61188;SDS011;47054;39.716;2.904;2022-11-25T17:07:58;1.95;;;1.13;;
61188;SDS011;47054;39.716;2.904;2022-11-25T17:10:43;2.20;;;1.13;;
61188;SDS011;47054;39.716;2.904;2022-11-25T17:13:28;1.45;;;0.98;;
61188;SDS011;47054;39.716;2.904;2022-11-25T17:16:17;1.67;;;1.00;;
61188;SDS011;47054;39.716;2.904;2022-11-25T17:19:04;1.60;;;1.10;;
61188;SDS011;47054;39.716;2.904;2022-11-25T17:21:56;2.35;;;1.20;;
61188;SDS011;47054;39.716;2.904;2022-11-25T17:24:40;1.98;;;1.00;;
61188;SDS011;47054;39.716;2.904;2022-11-25T17:30:21;1.40;;;1.10;;
61188;SDS011;47054;39.716;2.904;2022-11-25T17:33:15;1.60;;;0.90;;
61188;SDS011;47054;39.716;2.904;2022-11-25T17:36:01;2.22;;;1.10;;
61188;SDS011;47054;39.716;2.904;2022-11-25T17:38:46;1.70;;;1.10;;
61188;SDS011;47054;39.716;2.904;2022-11-25T17:41:31;2.50;;;1.10;;
61188;SDS011;47054;39.716;2.904;2022-11-25T17:47:12;3.13;;;1.55;;
61188;SDS011;47054;39.716;2.904;2022-11-25T17:49:58;3.40;;;1.50;;
61188;SDS011;47054;39.716;2.904;2022-11-25T17:52:43;2.90;;;1.67;;
61188;SDS011;47054;39.716;2.904;2022-11-25T17:55:28;3.10;;;1.30;;
61188;SDS011;47054;39.716;2.904;2022-11-25T17:58:13;4.80;;;1.73;;
61188;SDS011;47054;39.716;2.904;2022-11-25T18:00:58;4.25;;;1.52;;
61188;SDS011;47054;39.716;2.904;2022-11-25T18:03:43;3.13;;;1.50;;
61188;SDS011;47054;39.716;2.904;2022-11-25T18:06:28;4.18;;;1.52;;
61188;SDS011;47054;39.716;2.904;2022-11-25T18:09:12;6.40;;;1.50;;
61188;SDS011;47054;39.716;2.904;2022-11-25T18:11:58;7.55;;;1.58;;
61188;SDS011;47054;39.716;2.904;2022-11-25T18:14:45;4.72;;;1.60;;
61188;SDS011;47054;39.716;2.904;2022-11-25T18:17:30;4.88;;;1.40;;
61188;SDS011;47054;39.716;2.904;2022-11-25T18:20:22;5.43;;;1.50;;
61188;SDS011;47054;39.716;2.904;2022-11-25T18:23:07;5.07;;;1.90;;
61188;SDS011;47054;39.716;2.904;2022-11-25T18:25:53;3.67;;;1.58;;
61188;SDS011;47054;39.716;2.904;2022-11-25T18:28:39;2.92;;;1.13;;
61188;SDS011;47054;39.716;2.904;2022-11-25T18:31:24;5.22;;;1.50;;
61188;SDS011;47054;39.716;2.904;2022-11-25T18:34:13;5.78;;;1.63;;
61188;SDS011;47054;39.716;2.904;2022-11-25T18:36:58;4.70;;;1.33;;
61188;SDS011;47054;39.716;2.904;2022-11-25T18:39:44;3.55;;;1.35;;
61188;SDS011;47054;39.716;2.904;2022-11-25T18:42:30;3.65;;;2.00;;
61188;SDS011;47054;39.716;2.904;2022-11-25T18:48:14;7.72;;;2.10;;
61188;SDS011;47054;39.716;2.904;2022-11-25T18:50:58;4.13;;;1.75;;
61188;SDS011;47054;39.716;2.904;2022-11-25T18:53:43;5.30;;;2.00;;
61188;SDS011;47054;39.716;2.904;2022-11-25T18:56:28;4.90;;;2.03;;
61188;SDS011;47054;39.716;2.904;2022-11-25T18:59:13;5.15;;;1.80;;
61188;SDS011;47054;39.716;2.904;2022-11-25T19:02:00;6.53;;;2.22;;
61188;SDS011;47054;39.716;2.904;2022-11-25T19:04:45;6.75;;;2.00;;
61188;SDS011;47054;39.716;2.904;2022-11-25T19:07:30;3.97;;;2.00;;
61188;SDS011;47054;39.716;2.904;2022-11-25T19:10:15;4.55;;;2.08;;
61188;SDS011;47054;39.716;2.904;2022-11-25T19:13:00;4.75;;;2.13;;
61188;SDS011;47054;39.716;2.904;2022-11-25T19:15:49;4.05;;;1.92;;
61188;SDS011;47054;39.716;2.904;2022-11-25T19:18:33;4.90;;;2.17;;